Time;durP1;ratioP1;P1;durP2;ratioP2;P2;SDS_P1;SDS_P2;PMS_P1;PMS_P2;Temp;Humidity;BMP_temperature;BMP_pressure;BME280_temperature;BME280_humidity;BME280_pressure;Samples;Min_cycle;Max_cycle;Signal;HPM_P1;HPM_P2
2021/08/15 00:18:26;;;;;;;4.70;3.30;;;;;;;;;;4232132;33;20118;-67
2021/08/15 00:20:52;;;;;;;6.28;3.22;;;;;;;;;;4231969;33;20572;-68
2021/08/15 00:23:18;;;;;;;5.05;3.42;;;;;;;;;;4205243;34;20140;-68
2021/08/15 00:25:44;;;;;;;3.92;3.17;;;;;;;;;;4218392;34;20543;-71
2021/08/15 00:28:10;;;;;;;4.32;3.42;;;;;;;;;;4218273;34;20208;-70
2021/08/15 00:30:36;;;;;;;6.87;3.58;;;;;;;;;;4205356;34;20125;-67
2021/08/15 00:33:02;;;;;;;8.57;4.37;;;;;;;;;;4218214;33;20441;-70
2021/08/15 00:35:27;;;;;;;4.70;3.33;;;;;;;;;;4205418;34;20130;-67
2021/08/15 00:37:53;;;;;;;5.32;3.35;;;;;;;;;;4217870;33;20114;-71
2021/08/15 00:40:19;;;;;;;8.40;3.92;;;;;;;;;;4218268;34;20558;-67
2021/08/15 00:42:45;;;;;;;5.15;3.20;;;;;;;;;;4218017;33;20200;-68
2021/08/15 00:45:11;;;;;;;5.07;3.53;;;;;;;;;;4218673;34;20132;-70
2021/08/15 00:47:37;;;;;;;6.75;3.42;;;;;;;;;;4218314;33;20121;-67
2021/08/15 00:50:03;;;;;;;6.37;3.10;;;;;;;;;;4218104;34;20149;-68
2021/08/15 00:52:29;;;;;;;4.22;3.10;;;;;;;;;;4218283;33;20113;-67
2021/08/15 00:54:57;;;;;;;5.97;3.47;;;;;;;;;;4218057;34;20121;-69
2021/08/15 00:57:30;;;;;;;4.45;3.10;;;;;;;;;;4217989;33;20117;-69
2021/08/15 01:00:05;;;;;;;9.55;3.65;;;;;;;;;;4205337;34;20110;-70
2021/08/15 01:02:35;;;;;;;5.55;3.08;;;;;;;;;;4205341;34;20137;-68
2021/08/15 01:05:01;;;;;;;4.72;3.28;;;;;;;;;;4205326;34;20109;-69
2021/08/15 01:07:27;;;;;;;6.68;3.45;;;;;;;;;;4216542;34;20109;-67
2021/08/15 01:09:53;;;;;;;3.72;2.95;;;;;;;;;;4217779;34;20144;-70
2021/08/15 01:12:18;;;;;;;5.32;3.25;;;;;;;;;;4205174;34;20109;-70
2021/08/15 01:14:45;;;;;;;7.18;3.10;;;;;;;;;;4215914;34;20210;-67
2021/08/15 01:17:11;;;;;;;4.90;3.10;;;;;;;;;;4217340;33;20181;-69
2021/08/15 01:19:38;;;;;;;7.00;3.55;;;;;;;;;;4204782;34;20114;-68
2021/08/15 01:22:03;;;;;;;7.65;3.12;;;;;;;;;;4217516;33;20096;-72
2021/08/15 01:24:29;;;;;;;4.85;3.37;;;;;;;;;;4204552;34;20149;-69
2021/08/15 01:26:58;;;;;;;3.83;2.97;;;;;;;;;;4193145;34;20120;-69
2021/08/15 01:29:24;;;;;;;4.32;2.85;;;;;;;;;;4205034;34;20196;-69
2021/08/15 01:31:50;;;;;;;4.10;3.00;;;;;;;;;;4205347;34;20169;-69
2021/08/15 01:34:16;;;;;;;5.53;3.30;;;;;;;;;;4220199;34;20246;-69
2021/08/15 01:36:42;;;;;;;8.50;3.28;;;;;;;;;;4219772;33;20152;-67
2021/08/15 01:39:09;;;;;;;4.95;3.15;;;;;;;;;;4206768;34;20113;-69
2021/08/15 01:41:35;;;;;;;6.05;3.22;;;;;;;;;;4206494;34;20533;-66
2021/08/15 01:44:01;;;;;;;4.18;3.40;;;;;;;;;;4207320;34;20108;-67
2021/08/15 01:46:32;;;;;;;6.78;3.12;;;;;;;;;;4207007;34;20148;-67
2021/08/15 01:48:58;;;;;;;7.53;3.75;;;;;;;;;;4195109;34;20273;-66
2021/08/15 01:51:24;;;;;;;8.00;3.55;;;;;;;;;;4206788;34;20532;-67
2021/08/15 01:53:51;;;;;;;4.80;2.97;;;;;;;;;;4219702;34;20195;-66
2021/08/15 01:56:17;;;;;;;5.28;3.60;;;;;;;;;;4206731;34;20569;-69
2021/08/15 01:58:43;;;;;;;3.92;3.25;;;;;;;;;;4207026;34;20468;-67
2021/08/15 02:01:13;;;;;;;4.95;3.17;;;;;;;;;;4219395;33;20117;-66
2021/08/15 02:03:39;;;;;;;3.85;2.62;;;;;;;;;;4183831;34;20158;-66
2021/08/15 02:06:05;;;;;;;4.37;2.92;;;;;;;;;;4206551;33;20109;-67
2021/08/15 02:08:31;;;;;;;6.35;3.22;;;;;;;;;;4219466;34;20140;-69
2021/08/15 02:10:57;;;;;;;6.47;3.87;;;;;;;;;;4206603;33;20141;-69
2021/08/15 02:13:23;;;;;;;7.87;3.30;;;;;;;;;;4206551;34;20137;-67
2021/08/15 02:15:49;;;;;;;5.93;3.00;;;;;;;;;;4219579;34;20136;-69
2021/08/15 02:18:15;;;;;;;5.22;3.12;;;;;;;;;;4219662;33;20201;-68
2021/08/15 02:20:41;;;;;;;6.37;3.72;;;;;;;;;;4219267;34;20140;-66
2021/08/15 02:23:07;;;;;;;6.40;3.58;;;;;;;;;;4219262;33;20109;-67
2021/08/15 02:25:32;;;;;;;9.02;3.53;;;;;;;;;;4195206;34;20212;-67
2021/08/15 02:27:58;;;;;;;4.65;2.95;;;;;;;;;;4206506;34;20468;-70
2021/08/15 02:30:25;;;;;;;4.90;3.22;;;;;;;;;;4219461;34;20109;-67
2021/08/15 02:32:51;;;;;;;8.95;3.97;;;;;;;;;;4194757;34;20601;-67
2021/08/15 02:35:17;;;;;;;9.20;4.20;;;;;;;;;;4219472;34;20124;-66
2021/08/15 02:37:45;;;;;;;5.43;3.87;;;;;;;;;;4219661;33;20109;-66
2021/08/15 02:40:12;;;;;;;6.05;3.75;;;;;;;;;;4206480;34;20121;-65
2021/08/15 02:42:39;;;;;;;6.90;3.97;;;;;;;;;;4219253;33;20110;-69
2021/08/15 02:45:06;;;;;;;5.35;3.35;;;;;;;;;;4196290;34;20208;-69
2021/08/15 02:47:32;;;;;;;4.93;3.30;;;;;;;;;;4219081;33;20121;-66
2021/08/15 02:49:58;;;;;;;4.78;3.47;;;;;;;;;;4219088;34;20132;-66
2021/08/15 02:52:24;;;;;;;6.55;3.80;;;;;;;;;;4218900;33;20113;-66
2021/08/15 02:54:50;;;;;;;6.87;3.50;;;;;;;;;;4218905;34;20216;-66
2021/08/15 02:57:16;;;;;;;6.45;3.78;;;;;;;;;;4206203;34;20130;-66
2021/08/15 02:59:42;;;;;;;4.65;3.95;;;;;;;;;;4219268;34;20144;-69
2021/08/15 03:02:14;;;;;;;4.32;3.55;;;;;;;;;;4206211;34;20547;-67
2021/08/15 03:04:43;;;;;;;6.85;3.80;;;;;;;;;;4206565;34;20132;-70
2021/08/15 03:07:10;;;;;;;9.75;4.05;;;;;;;;;;4219441;33;20101;-69
2021/08/15 03:09:36;;;;;;;4.53;3.70;;;;;;;;;;4206376;34;20111;-68
2021/08/15 03:12:02;;;;;;;5.20;3.37;;;;;;;;;;4218879;33;20113;-68
2021/08/15 03:14:28;;;;;;;4.57;3.33;;;;;;;;;;4206184;34;20128;-67
2021/08/15 03:16:54;;;;;;;10.32;4.72;;;;;;;;;;4194325;34;20120;-67
2021/08/15 03:19:20;;;;;;;8.00;4.10;;;;;;;;;;4206112;34;20528;-67
2021/08/15 03:21:46;;;;;;;7.72;4.40;;;;;;;;;;4219086;33;20109;-67
2021/08/15 03:24:12;;;;;;;11.10;4.55;;;;;;;;;;4206200;34;20140;-67
2021/08/15 03:26:41;;;;;;;4.43;3.87;;;;;;;;;;4218916;33;20220;-69
2021/08/15 03:29:07;;;;;;;6.72;4.20;;;;;;;;;;4206263;34;20185;-67
2021/08/15 03:31:33;;;;;;;8.82;4.43;;;;;;;;;;4218832;33;20116;-67
2021/08/15 03:33:59;;;;;;;4.87;3.58;;;;;;;;;;4219027;34;20128;-67
2021/08/15 03:36:25;;;;;;;5.82;3.78;;;;;;;;;;4218596;33;20200;-66
2021/08/15 03:38:51;;;;;;;7.45;4.78;;;;;;;;;;4218683;34;20208;-68
2021/08/15 03:41:17;;;;;;;12.18;4.30;;;;;;;;;;4205754;34;20209;-73
2021/08/15 03:43:42;;;;;;;6.80;3.72;;;;;;;;;;4218783;34;20120;-68
2021/08/15 03:46:08;;;;;;;6.03;4.30;;;;;;;;;;4218522;33;20137;-68
2021/08/15 03:48:34;;;;;;;7.07;4.50;;;;;;;;;;4205698;34;20124;-68
2021/08/15 03:51:00;;;;;;;6.45;4.50;;;;;;;;;;4218289;33;20521;-68
2021/08/15 03:53:26;;;;;;;6.65;4.82;;;;;;;;;;4205279;34;20479;-66
2021/08/15 03:55:52;;;;;;;13.07;5.22;;;;;;;;;;4218106;33;20124;-68
2021/08/15 03:58:18;;;;;;;9.38;4.10;;;;;;;;;;4194448;34;20233;-65
2021/08/15 04:00:44;;;;;;;8.63;5.35;;;;;;;;;;4218549;34;20636;-69
2021/08/15 04:03:10;;;;;;;6.62;4.45;;;;;;;;;;4218479;33;20132;-69
2021/08/15 04:05:37;;;;;;;8.30;4.70;;;;;;;;;;4206012;34;20109;-68
2021/08/15 04:08:05;;;;;;;10.13;6.00;;;;;;;;;;4219238;33;20452;-67
2021/08/15 04:10:31;;;;;;;12.75;6.43;;;;;;;;;;4219467;34;20128;-66
2021/08/15 04:12:57;;;;;;;10.85;6.57;;;;;;;;;;4205765;34;20203;-69
2021/08/15 04:15:23;;;;;;;8.98;5.93;;;;;;;;;;4218804;34;20132;-69
2021/08/15 04:17:49;;;;;;;10.60;5.97;;;;;;;;;;4205668;34;20125;-69
2021/08/15 04:20:15;;;;;;;8.70;5.78;;;;;;;;;;4205858;34;20145;-69
2021/08/15 04:22:42;;;;;;;10.43;5.50;;;;;;;;;;4218670;33;20121;-68
2021/08/15 04:25:08;;;;;;;10.27;5.97;;;;;;;;;;4218600;34;20670;-67
2021/08/15 04:27:34;;;;;;;11.07;5.70;;;;;;;;;;4218605;33;20208;-67
2021/08/15 04:30:00;;;;;;;11.77;5.10;;;;;;;;;;4218612;34;20137;-68
2021/08/15 04:32:26;;;;;;;12.70;5.00;;;;;;;;;;4224398;33;20139;-66
2021/08/15 04:34:52;;;;;;;7.72;4.57;;;;;;;;;;4236159;33;20121;-69
2021/08/15 04:37:18;;;;;;;6.05;4.47;;;;;;;;;;4217732;33;20539;-67
2021/08/15 04:39:44;;;;;;;7.10;4.53;;;;;;;;;;4229197;33;20471;-68
2021/08/15 04:42:11;;;;;;;11.73;4.60;;;;;;;;;;4231072;33;20208;-68
2021/08/15 04:44:37;;;;;;;8.63;4.85;;;;;;;;;;4231232;33;20244;-68
2021/08/15 04:47:03;;;;;;;9.45;4.47;;;;;;;;;;4232096;33;20089;-68
2021/08/15 04:49:29;;;;;;;6.28;4.70;;;;;;;;;;4219490;33;20103;-69
2021/08/15 04:51:56;;;;;;;7.65;4.32;;;;;;;;;;4232255;33;20255;-70
2021/08/15 04:54:28;;;;;;;7.70;4.97;;;;;;;;;;4232363;33;20209;-68
2021/08/15 04:56:58;;;;;;;7.43;4.80;;;;;;;;;;4219750;33;20113;-69
2021/08/15 04:59:25;;;;;;;5.75;4.20;;;;;;;;;;4231891;33;20117;-68
2021/08/15 05:01:51;;;;;;;7.72;4.37;;;;;;;;;;4218640;33;20300;-68
2021/08/15 05:04:17;;;;;;;8.80;4.47;;;;;;;;;;4232258;33;20132;-67
2021/08/15 05:06:43;;;;;;;7.55;4.90;;;;;;;;;;4232245;33;20116;-68
2021/08/15 05:09:11;;;;;;;8.35;4.78;;;;;;;;;;4221297;33;20542;-68
2021/08/15 05:11:38;;;;;;;11.15;4.62;;;;;;;;;;4234625;33;20112;-66
2021/08/15 05:14:06;;;;;;;7.70;4.05;;;;;;;;;;4234331;33;20477;-67
2021/08/15 05:16:32;;;;;;;7.57;4.60;;;;;;;;;;4221543;33;20177;-68
2021/08/15 05:18:58;;;;;;;8.32;4.32;;;;;;;;;;4234034;33;20121;-71
2021/08/15 05:21:24;;;;;;;6.10;4.82;;;;;;;;;;4221004;33;20555;-70
2021/08/15 05:23:50;;;;;;;9.63;5.28;;;;;;;;;;4220965;33;20106;-71
2021/08/15 05:26:16;;;;;;;5.18;3.90;;;;;;;;;;4233888;33;20116;-68
2021/08/15 05:28:42;;;;;;;8.27;4.28;;;;;;;;;;4221210;33;20132;-68
2021/08/15 05:31:08;;;;;;;10.00;4.05;;;;;;;;;;4233650;33;20212;-70
2021/08/15 05:33:35;;;;;;;8.68;4.70;;;;;;;;;;4209162;33;20212;-70
2021/08/15 05:36:01;;;;;;;14.02;4.70;;;;;;;;;;4220657;33;20223;-70
2021/08/15 05:38:27;;;;;;;9.80;4.10;;;;;;;;;;4220825;33;20514;-69
2021/08/15 05:40:53;;;;;;;10.48;4.20;;;;;;;;;;4233649;33;20117;-68
2021/08/15 05:43:19;;;;;;;8.05;4.45;;;;;;;;;;4233705;33;20236;-68
2021/08/15 05:45:45;;;;;;;8.13;5.60;;;;;;;;;;4233373;33;20143;-68
2021/08/15 05:48:11;;;;;;;9.60;5.45;;;;;;;;;;4233593;33;20122;-68
2021/08/15 05:50:37;;;;;;;12.93;5.55;;;;;;;;;;4233683;33;20449;-68
2021/08/15 05:53:03;;;;;;;9.02;5.68;;;;;;;;;;4208835;33;20116;-67
2021/08/15 05:55:29;;;;;;;12.98;5.80;;;;;;;;;;4233474;33;20142;-68
2021/08/15 05:57:55;;;;;;;11.82;5.40;;;;;;;;;;4233628;33;20152;-71
2021/08/15 06:00:21;;;;;;;12.05;5.97;;;;;;;;;;4220549;33;20147;-70
2021/08/15 06:02:47;;;;;;;10.18;5.32;;;;;;;;;;4233393;33;20658;-71
2021/08/15 06:05:14;;;;;;;12.63;5.90;;;;;;;;;;4233456;33;20133;-68
2021/08/15 06:07:40;;;;;;;22.30;6.72;;;;;;;;;;4232892;33;20116;-69
2021/08/15 06:10:07;;;;;;;10.73;5.57;;;;;;;;;;4233280;33;20120;-67
2021/08/15 06:12:36;;;;;;;17.25;5.28;;;;;;;;;;4220060;33;20105;-67
2021/08/15 06:15:03;;;;;;;12.98;6.18;;;;;;;;;;4232944;33;20205;-67
2021/08/15 06:17:29;;;;;;;8.98;4.85;;;;;;;;;;4217618;33;20128;-67
2021/08/15 06:19:55;;;;;;;9.77;5.40;;;;;;;;;;4231531;33;20129;-68
2021/08/15 06:22:21;;;;;;;11.40;4.32;;;;;;;;;;4230532;33;20113;-68
2021/08/15 06:24:47;;;;;;;7.62;4.72;;;;;;;;;;4230324;33;20133;-68
2021/08/15 06:27:13;;;;;;;11.43;5.30;;;;;;;;;;4231880;33;20124;-68
2021/08/15 06:29:39;;;;;;;8.18;4.80;;;;;;;;;;4230681;33;20117;-68
2021/08/15 06:32:06;;;;;;;9.70;5.82;;;;;;;;;;4219679;33;20120;-67
2021/08/15 06:34:32;;;;;;;13.35;5.37;;;;;;;;;;4233063;33;20121;-68
2021/08/15 06:36:58;;;;;;;16.42;6.75;;;;;;;;;;4232955;33;20132;-68
2021/08/15 06:39:23;;;;;;;13.98;6.45;;;;;;;;;;4231609;33;20152;-68
2021/08/15 06:41:49;;;;;;;10.00;6.32;;;;;;;;;;4232907;33;20132;-67
2021/08/15 06:44:16;;;;;;;16.85;6.32;;;;;;;;;;4232898;33;20121;-68
2021/08/15 06:46:41;;;;;;;14.70;7.60;;;;;;;;;;4228108;33;20113;-68
2021/08/15 06:49:07;;;;;;;11.95;6.15;;;;;;;;;;4232810;33;20429;-67
2021/08/15 06:51:33;;;;;;;13.50;6.55;;;;;;;;;;4219966;33;20112;-67
2021/08/15 06:53:59;;;;;;;12.93;7.07;;;;;;;;;;4232899;33;20252;-68
2021/08/15 06:56:25;;;;;;;12.88;7.05;;;;;;;;;;4220018;33;20168;-68
2021/08/15 06:58:51;;;;;;;19.23;8.63;;;;;;;;;;4232897;33;20120;-68
2021/08/15 07:01:17;;;;;;;17.45;10.13;;;;;;;;;;4219663;33;20121;-68
2021/08/15 07:03:43;;;;;;;23.38;8.23;;;;;;;;;;4232782;33;20468;-68
2021/08/15 07:06:09;;;;;;;20.73;9.48;;;;;;;;;;4232757;33;20121;-70
2021/08/15 07:08:36;;;;;;;15.77;8.50;;;;;;;;;;4232780;33;20112;-69
2021/08/15 07:11:02;;;;;;;20.88;9.90;;;;;;;;;;4232858;33;20097;-68
2021/08/15 07:13:28;;;;;;;20.33;9.00;;;;;;;;;;4219658;33;20240;-68
2021/08/15 07:15:54;;;;;;;18.87;10.07;;;;;;;;;;4232466;33;20138;-69
2021/08/15 07:18:20;;;;;;;28.02;11.27;;;;;;;;;;4219652;33;20105;-68
2021/08/15 07:20:47;;;;;;;27.15;11.30;;;;;;;;;;4232463;33;20121;-68
2021/08/15 07:23:13;;;;;;;21.98;10.35;;;;;;;;;;4232525;33;20141;-68
2021/08/15 07:25:39;;;;;;;26.50;10.27;;;;;;;;;;4218621;33;20186;-68
2021/08/15 07:28:05;;;;;;;20.05;10.38;;;;;;;;;;4232546;33;20612;-68
2021/08/15 07:30:33;;;;;;;19.20;9.10;;;;;;;;;;4207570;33;20120;-68
2021/08/15 07:33:02;;;;;;;28.30;11.05;;;;;;;;;;4219793;33;20466;-68
2021/08/15 07:35:28;;;;;;;19.98;9.48;;;;;;;;;;4232714;33;20102;-69
2021/08/15 07:37:54;;;;;;;28.80;11.35;;;;;;;;;;4219529;33;20122;-69
2021/08/15 07:40:20;;;;;;;33.92;12.20;;;;;;;;;;4231065;33;20177;-69
2021/08/15 07:42:50;;;;;;;25.58;10.13;;;;;;;;;;4219471;33;20104;-69
2021/08/15 07:45:17;;;;;;;23.10;9.75;;;;;;;;;;4232809;33;20267;-68
2021/08/15 07:47:43;;;;;;;23.80;10.82;;;;;;;;;;4232245;33;20600;-69
2021/08/15 07:50:10;;;;;;;21.42;11.70;;;;;;;;;;4219191;33;20109;-69
2021/08/15 07:52:36;;;;;;;28.23;11.18;;;;;;;;;;4232213;33;20613;-69
2021/08/15 07:55:02;;;;;;;20.48;10.80;;;;;;;;;;4232436;33;20132;-68
2021/08/15 07:57:28;;;;;;;36.22;12.23;;;;;;;;;;4232262;33;20117;-67
2021/08/15 07:59:54;;;;;;;36.67;14.05;;;;;;;;;;4232143;33;20105;-68
2021/08/15 08:02:20;;;;;;;31.77;14.82;;;;;;;;;;4219214;33;20113;-67
2021/08/15 08:04:48;;;;;;;17.33;9.27;;;;;;;;;;4219232;33;20125;-70
2021/08/15 08:07:18;;;;;;;18.25;10.23;;;;;;;;;;4208006;33;20644;-69
2021/08/15 08:09:48;;;;;;;14.40;8.07;;;;;;;;;;4219611;33;20128;-69
2021/08/15 08:12:14;;;;;;;15.32;8.63;;;;;;;;;;4219469;33;20560;-70
2021/08/15 08:14:40;;;;;;;14.75;8.32;;;;;;;;;;4232140;33;20502;-67
2021/08/15 08:17:07;;;;;;;17.98;8.60;;;;;;;;;;4218968;33;20115;-68
2021/08/15 08:19:33;;;;;;;19.73;9.10;;;;;;;;;;4232309;33;20120;-69
2021/08/15 08:21:59;;;;;;;21.35;10.43;;;;;;;;;;4217812;33;20144;-68
2021/08/15 08:24:25;;;;;;;37.00;13.90;;;;;;;;;;4231877;33;20112;-69
2021/08/15 08:26:51;;;;;;;44.40;14.30;;;;;;;;;;4231714;33;20097;-68
2021/08/15 08:29:17;;;;;;;38.70;12.35;;;;;;;;;;4222528;33;20105;-66
2021/08/15 08:31:43;;;;;;;50.50;18.10;;;;;;;;;;4231875;33;20112;-71
2021/08/15 08:34:09;;;;;;;41.53;14.68;;;;;;;;;;4219451;33;20129;-71
2021/08/15 08:36:35;;;;;;;35.75;14.02;;;;;;;;;;4232115;33;20468;-68
2021/08/15 08:39:01;;;;;;;47.88;17.65;;;;;;;;;;4232135;33;20132;-69
2021/08/15 08:41:28;;;;;;;60.15;20.10;;;;;;;;;;4232578;33;20113;-69
2021/08/15 08:43:54;;;;;;;46.78;18.35;;;;;;;;;;4220998;33;20196;-68
2021/08/15 08:46:19;;;;;;;35.47;14.85;;;;;;;;;;4220992;33;20116;-70
2021/08/15 08:48:45;;;;;;;56.85;16.98;;;;;;;;;;4221032;33;20172;-69
2021/08/15 08:51:11;;;;;;;46.13;15.50;;;;;;;;;;4233700;33;20157;-68
2021/08/15 08:53:38;;;;;;;33.78;14.80;;;;;;;;;;4233934;33;20624;-69
2021/08/15 08:56:04;;;;;;;35.30;13.40;;;;;;;;;;4220604;33;20112;-70
2021/08/15 08:58:30;;;;;;;34.40;16.45;;;;;;;;;;4234019;33;20119;-69
2021/08/15 09:00:56;;;;;;;27.33;14.10;;;;;;;;;;4233632;33;20620;-69
2021/08/15 09:03:22;;;;;;;27.87;13.60;;;;;;;;;;4233602;33;20300;-69
2021/08/15 09:05:55;;;;;;;22.37;11.38;;;;;;;;;;4233772;33;20118;-69
2021/08/15 09:08:28;;;;;;;21.60;12.18;;;;;;;;;;4220706;33;20121;-69
2021/08/15 09:11:16;;;;;;;20.80;12.52;;;;;;;;;;4220864;33;20806;-69
2021/08/15 09:14:02;;;;;;;20.73;12.40;;;;;;;;;;4222666;33;20105;-67
2021/08/15 09:16:53;;;;;;;24.63;11.77;;;;;;;;;;4220775;33;20452;-63
2021/08/15 09:19:39;;;;;;;23.73;12.63;;;;;;;;;;4206842;34;20121;-63
2021/08/15 09:22:16;;;;;;;22.35;11.48;;;;;;;;;;4206645;34;20113;-65
2021/08/15 09:24:49;;;;;;;25.30;10.07;;;;;;;;;;4219688;33;20145;-63
2021/08/15 09:27:25;;;;;;;18.67;10.13;;;;;;;;;;4219483;34;20178;-63
2021/08/15 09:30:15;;;;;;;19.23;9.70;;;;;;;;;;4219603;34;20509;-62
2021/08/15 09:32:51;;;;;;;16.90;10.95;;;;;;;;;;4219588;34;20571;-62
2021/08/15 09:35:27;;;;;;;27.62;12.98;;;;;;;;;;4219438;34;20205;-61
2021/08/15 09:37:55;;;;;;;18.02;9.63;;;;;;;;;;4219594;33;20093;-63
2021/08/15 09:40:31;;;;;;;20.23;10.25;;;;;;;;;;4206860;34;20109;-64
2021/08/15 09:42:58;;;;;;;19.73;9.73;;;;;;;;;;4218341;33;20082;-63
2021/08/15 09:45:38;;;;;;;21.42;9.57;;;;;;;;;;4219234;34;20109;-64
2021/08/15 09:48:18;;;;;;;14.27;8.80;;;;;;;;;;4195408;34;20136;-64
2021/08/15 09:51:11;;;;;;;19.65;9.32;;;;;;;;;;4206562;34;20097;-65
2021/08/15 09:53:38;;;;;;;17.42;9.45;;;;;;;;;;4216533;34;20125;-64
2021/08/15 09:56:04;;;;;;;14.73;9.05;;;;;;;;;;4218063;33;20117;-64
2021/08/15 09:58:30;;;;;;;25.23;9.45;;;;;;;;;;4206639;34;20611;-68
2021/08/15 10:00:56;;;;;;;20.50;9.75;;;;;;;;;;4219218;33;20568;-68
2021/08/15 10:03:22;;;;;;;15.27;9.05;;;;;;;;;;4219171;33;20125;-69
2021/08/15 10:05:49;;;;;;;20.58;7.30;;;;;;;;;;4194743;34;20129;-69
2021/08/15 10:08:15;;;;;;;14.98;7.10;;;;;;;;;;4195089;34;20129;-68
2021/08/15 10:10:41;;;;;;;10.65;6.43;;;;;;;;;;4215526;33;20101;-69
2021/08/15 10:13:07;;;;;;;15.15;7.15;;;;;;;;;;4221747;33;20498;-67
2021/08/15 10:15:35;;;;;;;18.77;7.43;;;;;;;;;;4233065;33;20129;-66
2021/08/15 10:18:03;;;;;;;17.48;6.93;;;;;;;;;;4234099;33;20128;-67
2021/08/15 10:20:29;;;;;;;20.83;7.80;;;;;;;;;;4220396;33;20105;-67
2021/08/15 10:23:09;;;;;;;9.52;5.85;;;;;;;;;;4232872;33;20094;-65
2021/08/15 10:25:41;;;;;;;16.45;7.20;;;;;;;;;;4220256;33;20553;-65
2021/08/15 10:28:09;;;;;;;9.75;6.47;;;;;;;;;;4216495;33;20101;-66
2021/08/15 10:30:35;;;;;;;11.00;6.28;;;;;;;;;;4215149;33;20460;-68
2021/08/15 10:33:05;;;;;;;16.73;7.53;;;;;;;;;;4233015;33;20137;-68
2021/08/15 10:35:32;;;;;;;20.40;7.30;;;;;;;;;;4220191;33;20386;-68
2021/08/15 10:38:19;;;;;;;18.08;7.05;;;;;;;;;;4230235;33;20215;-67
2021/08/15 10:40:47;;;;;;;17.35;8.18;;;;;;;;;;4232524;33;20106;-69
2021/08/15 10:43:33;;;;;;;16.20;6.97;;;;;;;;;;4217943;33;20200;-69
2021/08/15 10:46:24;;;;;;;19.15;7.85;;;;;;;;;;4232747;33;20101;-67
2021/08/15 10:49:02;;;;;;;24.17;7.93;;;;;;;;;;4232533;33;20192;-71
2021/08/15 10:51:41;;;;;;;16.08;8.20;;;;;;;;;;4231982;33;20104;-70
2021/08/15 10:54:28;;;;;;;12.45;7.53;;;;;;;;;;4220345;33;20181;-70
2021/08/15 10:57:04;;;;;;;13.68;8.45;;;;;;;;;;4231889;33;20112;-69
2021/08/15 10:59:38;;;;;;;21.77;8.00;;;;;;;;;;4209351;33;20508;-65
2021/08/15 11:02:19;;;;;;;19.80;8.95;;;;;;;;;;4218085;33;20103;-66
2021/08/15 11:05:39;;;;;;;18.70;8.32;;;;;;;;;;4232826;33;20602;-67
2021/08/15 11:08:34;;;;;;;15.43;7.85;;;;;;;;;;4224323;33;20212;-67
2021/08/15 11:11:12;;;;;;;18.45;9.85;;;;;;;;;;4233709;33;20113;-69
2021/08/15 11:13:40;;;;;;;19.62;8.88;;;;;;;;;;4232817;33;20104;-65
2021/08/15 11:16:25;;;;;;;16.98;9.43;;;;;;;;;;4223794;33;20147;-67
2021/08/15 11:19:12;;;;;;;12.60;7.93;;;;;;;;;;4229075;33;20680;-66
2021/08/15 11:22:15;;;;;;;16.95;8.48;;;;;;;;;;4230626;33;20536;-70
2021/08/15 11:24:43;;;;;;;16.20;8.52;;;;;;;;;;4227082;33;20457;-68
2021/08/15 11:27:34;;;;;;;16.87;8.43;;;;;;;;;;4232569;33;20123;-67
2021/08/15 11:30:12;;;;;;;20.30;8.40;;;;;;;;;;4215216;33;20090;-65
2021/08/15 11:32:39;;;;;;;15.50;7.60;;;;;;;;;;4219799;33;20677;-64
2021/08/15 11:35:10;;;;;;;15.38;7.25;;;;;;;;;;4219881;33;20111;-65
2021/08/15 11:37:38;;;;;;;16.17;7.50;;;;;;;;;;4232276;33;20113;-65
2021/08/15 11:40:20;;;;;;;13.80;7.07;;;;;;;;;;4219718;33;20109;-64
2021/08/15 11:43:01;;;;;;;12.80;6.80;;;;;;;;;;4232363;33;20168;-67
2021/08/15 11:45:36;;;;;;;11.93;6.47;;;;;;;;;;4218286;33;20168;-67
2021/08/15 11:48:13;;;;;;;15.88;7.37;;;;;;;;;;4229476;33;20121;-68
2021/08/15 11:51:00;;;;;;;12.37;7.20;;;;;;;;;;4233008;33;20101;-66
2021/08/15 11:53:34;;;;;;;17.80;7.75;;;;;;;;;;4219660;33;20316;-72
2021/08/15 11:56:11;;;;;;;14.77;7.50;;;;;;;;;;4218385;33;20652;-70
2021/08/15 11:58:52;;;;;;;16.27;8.65;;;;;;;;;;4222198;33;20437;-71
2021/08/15 12:01:25;;;;;;;13.52;7.43;;;;;;;;;;4227352;33;20133;-71
2021/08/15 12:04:03;;;;;;;14.60;8.02;;;;;;;;;;4224096;33;20086;-70
2021/08/15 12:06:38;;;;;;;20.05;8.20;;;;;;;;;;4217128;34;20461;-70
2021/08/15 12:09:16;;;;;;;19.20;9.25;;;;;;;;;;4229669;33;20137;-70
2021/08/15 12:11:53;;;;;;;17.67;9.30;;;;;;;;;;4218632;33;20101;-69
2021/08/15 12:14:20;;;;;;;19.37;9.23;;;;;;;;;;4217148;34;20293;-69
2021/08/15 12:16:58;;;;;;;13.52;7.30;;;;;;;;;;4227465;33;20125;-69
2021/08/15 12:19:25;;;;;;;17.37;7.47;;;;;;;;;;4218176;34;20141;-69
2021/08/15 12:21:52;;;;;;;16.35;8.43;;;;;;;;;;4205357;34;20164;-69
2021/08/15 12:24:19;;;;;;;13.90;7.18;;;;;;;;;;4218408;34;20514;-69
2021/08/15 12:26:53;;;;;;;17.27;8.82;;;;;;;;;;4218346;33;20132;-69
2021/08/15 12:29:27;;;;;;;27.42;9.63;;;;;;;;;;4205302;34;20179;-69
2021/08/15 12:32:03;;;;;;;17.92;8.00;;;;;;;;;;4218116;33;20122;-69
2021/08/15 12:34:30;;;;;;;17.08;9.23;;;;;;;;;;4217934;33;20094;-70
2021/08/15 12:36:59;;;;;;;17.83;8.45;;;;;;;;;;4222800;33;20130;-69
2021/08/15 12:39:32;;;;;;;20.00;11.35;;;;;;;;;;4222618;33;20191;-69
2021/08/15 12:42:03;;;;;;;21.05;10.05;;;;;;;;;;4231883;33;20139;-70
2021/08/15 12:44:34;;;;;;;22.67;10.95;;;;;;;;;;4232143;33;20081;-69
2021/08/15 12:47:03;;;;;;;15.73;8.70;;;;;;;;;;4225734;33;20481;-70
2021/08/15 12:49:35;;;;;;;18.02;9.38;;;;;;;;;;4232173;33;20213;-70
2021/08/15 12:52:13;;;;;;;15.30;8.93;;;;;;;;;;4231779;33;20115;-71
2021/08/15 12:55:04;;;;;;;24.33;9.63;;;;;;;;;;4232022;33;20116;-70
2021/08/15 12:57:30;;;;;;;26.67;10.40;;;;;;;;;;4231952;33;20189;-69
2021/08/15 12:59:56;;;;;;;25.10;13.52;;;;;;;;;;4218857;33;20121;-69
2021/08/15 13:02:22;;;;;;;35.38;19.10;;;;;;;;;;4231712;33;20097;-69
2021/08/15 13:04:48;;;;;;;43.15;23.85;;;;;;;;;;4231758;33;20133;-68
2021/08/15 13:07:15;;;;;;;41.78;24.02;;;;;;;;;;4231539;33;20196;-70
2021/08/15 13:09:42;;;;;;;43.03;25.10;;;;;;;;;;4231582;33;20125;-69
2021/08/15 13:12:08;;;;;;;42.30;21.40;;;;;;;;;;4218376;33;20205;-69
2021/08/15 13:14:34;;;;;;;42.60;21.35;;;;;;;;;;4218685;33;20231;-69
2021/08/15 13:17:01;;;;;;;38.63;20.33;;;;;;;;;;4231356;33;20117;-70
2021/08/15 13:19:27;;;;;;;41.78;21.70;;;;;;;;;;4207638;33;20128;-71
2021/08/15 13:21:53;;;;;;;33.85;18.23;;;;;;;;;;4206980;33;20100;-71
2021/08/15 13:24:19;;;;;;;39.83;22.35;;;;;;;;;;4196187;33;20121;-68
2021/08/15 13:26:45;;;;;;;57.90;27.42;;;;;;;;;;4231382;33;20188;-69
2021/08/15 13:29:11;;;;;;;37.63;20.52;;;;;;;;;;4233302;33;20211;-69
2021/08/15 13:31:37;;;;;;;34.25;18.90;;;;;;;;;;4220415;33;20140;-71
2021/08/15 13:34:03;;;;;;;42.60;20.67;;;;;;;;;;4220712;33;20134;-70
2021/08/15 13:36:30;;;;;;;40.83;19.23;;;;;;;;;;4233642;33;20108;-70
2021/08/15 13:38:56;;;;;;;27.37;15.82;;;;;;;;;;4209285;33;20446;-70
2021/08/15 13:41:22;;;;;;;31.17;15.90;;;;;;;;;;4233392;33;20128;-70
2021/08/15 13:43:48;;;;;;;26.80;14.57;;;;;;;;;;4233562;33;20136;-69
2021/08/15 13:46:15;;;;;;;23.70;13.73;;;;;;;;;;4233335;33;20173;-69
2021/08/15 13:48:41;;;;;;;24.83;14.05;;;;;;;;;;4220775;33;20534;-71
2021/08/15 13:51:07;;;;;;;29.42;14.48;;;;;;;;;;4233888;33;20108;-71
2021/08/15 13:53:33;;;;;;;25.77;13.05;;;;;;;;;;4220525;33;20537;-69
2021/08/15 13:55:59;;;;;;;26.15;12.25;;;;;;;;;;4233620;33;20104;-68
2021/08/15 13:58:25;;;;;;;24.42;12.77;;;;;;;;;;4233639;33;20144;-70
2021/08/15 14:00:52;;;;;;;25.25;11.23;;;;;;;;;;4233736;33;21238;-69
2021/08/15 14:03:18;;;;;;;21.35;11.32;;;;;;;;;;4233474;33;20116;-68
2021/08/15 14:05:45;;;;;;;22.65;11.23;;;;;;;;;;4233447;33;20140;-70
2021/08/15 14:08:11;;;;;;;25.08;11.07;;;;;;;;;;4220848;33;20205;-65
2021/08/15 14:10:41;;;;;;;26.42;11.23;;;;;;;;;;4233206;33;20136;-66
2021/08/15 14:13:13;;;;;;;19.83;10.82;;;;;;;;;;4233546;33;20175;-68
2021/08/15 14:15:40;;;;;;;28.00;12.73;;;;;;;;;;4233258;33;20147;-67
2021/08/15 14:18:06;;;;;;;23.67;10.07;;;;;;;;;;4233425;33;20157;-69
2021/08/15 14:20:34;;;;;;;21.83;11.23;;;;;;;;;;4233222;33;20615;-69
2021/08/15 14:23:01;;;;;;;27.50;11.15;;;;;;;;;;4220393;33;20188;-67
2021/08/15 14:25:46;;;;;;;26.80;11.55;;;;;;;;;;4218893;33;21203;-68
2021/08/15 14:28:16;;;;;;;20.73;11.60;;;;;;;;;;4219431;33;20113;-65
2021/08/15 14:30:42;;;;;;;20.12;10.75;;;;;;;;;;4219901;33;20117;-68
2021/08/15 14:33:08;;;;;;;19.92;10.70;;;;;;;;;;4230959;33;20147;-70
2021/08/15 14:35:34;;;;;;;20.88;10.30;;;;;;;;;;4206620;34;20145;-68
2021/08/15 14:38:00;;;;;;;21.60;11.48;;;;;;;;;;4219167;33;20209;-68
2021/08/15 14:40:29;;;;;;;25.62;11.23;;;;;;;;;;4232521;33;20135;-68
2021/08/15 14:42:56;;;;;;;23.12;12.65;;;;;;;;;;4228085;33;20116;-69
2021/08/15 14:45:22;;;;;;;23.40;12.05;;;;;;;;;;4220069;33;20480;-69
2021/08/15 14:47:49;;;;;;;23.60;11.65;;;;;;;;;;4233052;33;20117;-68
2021/08/15 14:50:16;;;;;;;26.52;12.98;;;;;;;;;;4231752;33;20180;-68
2021/08/15 14:52:42;;;;;;;21.77;13.05;;;;;;;;;;4233133;33;20189;-70
2021/08/15 14:55:08;;;;;;;25.02;11.75;;;;;;;;;;4219642;33;20503;-68
2021/08/15 14:57:35;;;;;;;22.00;10.90;;;;;;;;;;4235615;33;20100;-68